American Freedom — WDC3284 — position and weather

sailwx.info

Track history (hours):
 
Tides and Currents Weather Stations Pressure Air Temp Water Temp Dewpoint Dewpoint Depression Visibility Wind Speed Wind Dir Waves Ship Positions

American Freedom

Owner: LeBeouf Bros. Towing, L.L.C., Houma, LA. More information available from US FCC via Universal Licensing System and Coast Guard Vessel Documentation Center.

Last reported at 2017-Dec-12 21:37 UTC. Time now 2017-Dec-16 01:29 UTC.
Position N 29°30' W 094°52'.

Length 24 m.

Type: Tug. MMSI: 367005260.

Date/timePositionNaut miles runAvg speedWind from/ knotsBaromVisibWave heightAir tempDewpointWater temp
2017-Dec-12 21:37N 29°30' W 094°52'1 7.6
2017-Dec-12 21:30N 29°30' W 094°53'4 7.6
2017-Dec-12 21:01N 29°34' W 094°55'4 7.9
2017-Dec-12 20:31N 29°37' W 094°57'4 8.1
2017-Dec-12 20:01N 29°41' W 094°59'4 6.5
2017-Dec-12 19:28N 29°42' W 095°02'0 0.4
2017-Dec-12 18:38N 29°42' W 095°03'0 0.0
2017-Dec-12 18:29N 29°42' W 095°03'0 0.0
2017-Dec-12 17:56N 29°42' W 095°03'0 0.0
2017-Dec-12 17:26N 29°42' W 095°03'0 0.0
2017-Dec-12 16:55N 29°42' W 095°03'0 0.0
2017-Dec-12 16:30N 29°42' W 095°03'0 0.0
2017-Dec-12 15:57N 29°42' W 095°03'0 0.0
2017-Dec-12 15:26N 29°42' W 095°03'0 0.0
2017-Dec-12 14:54N 29°42' W 095°03'0 0.0
2017-Dec-12 14:30N 29°42' W 095°03'0 0.0
2017-Dec-12 13:58N 29°42' W 095°03'0 0.0
2017-Dec-12 13:16N 29°42' W 095°03'0 0.0
2017-Dec-12 12:52N 29°42' W 095°03'0 0.0
2017-Dec-12 12:11N 29°42' W 095°03'0 0.0
2017-Dec-12 11:57N 29°42' W 095°03'0 0.0
2017-Dec-12 11:29N 29°42' W 095°03'0 0.0
2017-Dec-12 11:00N 29°42' W 095°03'0 0.0
2017-Dec-12 10:28N 29°42' W 095°03'0 0.0
2017-Dec-12 09:57N 29°42' W 095°03'0 0.0
2017-Dec-12 09:24N 29°42' W 095°03'0 0.0
2017-Dec-12 08:55N 29°42' W 095°03'0 0.0
2017-Dec-12 08:29N 29°42' W 095°03'1 2.7
2017-Dec-12 08:00N 29°42' W 095°01'3 5.7
2017-Dec-12 07:25N 29°45' W 095°04'2 1.4
2017-Dec-12 06:06N 29°45' W 095°06'2 0.4
2017-Dec-11 23:44N 29°44' W 095°03'2 7.1
2017-Dec-11 23:29N 29°43' W 095°01'2 3.2
2017-Dec-11 23:00N 29°42' W 095°03'0 0.0
2017-Dec-11 22:28N 29°42' W 095°03'0 0.0
2017-Dec-11 21:48N 29°42' W 095°03'0 0.0
2017-Dec-11 21:24N 29°42' W 095°03'0 0.0
2017-Dec-11 20:48N 29°42' W 095°03'0 0.0
2017-Dec-11 20:30N 29°42' W 095°03'0 0.0
2017-Dec-11 19:59N 29°42' W 095°03'0 0.0
2017-Dec-11 19:15N 29°42' W 095°03'0 0.0
2017-Dec-11 19:00N 29°42' W 095°03'0 0.1
2017-Dec-11 18:04N 29°42' W 095°03'0 0.0
2017-Dec-11 17:55N 29°42' W 095°03'0 0.0
2017-Dec-11 17:24N 29°42' W 095°03'0 0.0
2017-Dec-11 16:54N 29°42' W 095°03'0 0.0
2017-Dec-11 16:30N 29°42' W 095°03'0 0.0
2017-Dec-11 15:09N 29°42' W 095°03'0 0.1
2017-Dec-11 14:47N 29°42' W 095°03'0 0.0
2017-Dec-11 14:30N 29°42' W 095°03'0 0.0
2017-Dec-11 13:59N 29°42' W 095°03'0 0.0
2017-Dec-11 13:10N 29°42' W 095°03'0 0.0
2017-Dec-11 12:55N 29°42' W 095°03'0 0.0
2017-Dec-11 11:33N 29°42' W 095°03'0 0.0
2017-Dec-11 11:26N 29°42' W 095°03'0 0.0
2017-Dec-11 10:30N 29°42' W 095°03'0 0.0
2017-Dec-11 09:58N 29°42' W 095°03'0 0.0
2017-Dec-11 09:29N 29°42' W 095°03'0 0.0
2017-Dec-11 09:01N 29°42' W 095°03'0 0.0
2017-Dec-11 08:30N 29°42' W 095°03'0 0.0
2017-Dec-11 07:53N 29°42' W 095°03'0 0.0
2017-Dec-11 07:02N 29°42' W 095°03'0 0.0
2017-Dec-11 06:58N 29°42' W 095°03'0 0.0
2017-Dec-11 06:30N 29°42' W 095°03'0 0.0
2017-Dec-11 05:59N 29°42' W 095°03'0 0.0
2017-Dec-11 05:23N 29°42' W 095°03'0 0.0
2017-Dec-11 04:54N 29°42' W 095°03'0 0.0
2017-Dec-11 04:30N 29°42' W 095°03'0 0.0
2017-Dec-11 03:46N 29°42' W 095°03'0 0.0
2017-Dec-11 03:24N 29°42' W 095°03'0 0.0
2017-Dec-11 02:54N 29°42' W 095°03'0 0.0
2017-Dec-11 02:28N 29°42' W 095°03'0 0.0
2017-Dec-11 01:59N 29°42' W 095°03'0 0.0
2017-Dec-11 01:23N 29°42' W 095°03'0 0.0
2017-Dec-11 00:58N 29°42' W 095°03'0 0.0
2017-Dec-11 00:22N 29°42' W 095°03'0 0.0
2017-Dec-10 23:48N 29°42' W 095°03'0 0.0
2017-Dec-10 23:25N 29°42' W 095°03'0 0.0
2017-Dec-10 23:00N 29°42' W 095°03'0 0.0
2017-Dec-10 22:27N 29°42' W 095°03'0 0.0
2017-Dec-10 21:45N 29°42' W 095°03'0 0.0
2017-Dec-10 21:24N 29°42' W 095°03'0 0.0
2017-Dec-10 20:59N 29°42' W 095°03'0 0.0
2017-Dec-10 20:27N 29°42' W 095°03'0 0.0
2017-Dec-10 19:08N 29°42' W 095°03'0 0.0
2017-Dec-10 19:01N 29°42' W 095°03'0 0.0
2017-Dec-10 18:25N 29°42' W 095°03'0 0.0
2017-Dec-10 17:35N 29°42' W 095°03'0 0.0
2017-Dec-10 17:26N 29°42' W 095°03'0 0.0
2017-Dec-10 17:01N 29°42' W 095°03'0 0.0
2017-Dec-10 15:23N 29°42' W 095°03'0 0.0
2017-Dec-10 14:58N 29°42' W 095°03'0 0.0
2017-Dec-10 14:15N 29°42' W 095°03'0 0.0
2017-Dec-10 13:59N 29°42' W 095°03'0 0.0
2017-Dec-10 13:27N 29°42' W 095°03'0 0.0
2017-Dec-10 12:55N 29°42' W 095°03'0 0.0
2017-Dec-10 12:31N 29°42' W 095°03'0 0.0
2017-Dec-10 11:43N 29°42' W 095°03'0 0.0
2017-Dec-10 11:21N 29°42' W 095°03'0 0.0
2017-Dec-10 10:43N 29°42' W 095°03'0 0.0
2017-Dec-10 10:29N 29°42' W 095°03'0 0.0
2017-Dec-10 09:57N 29°42' W 095°03'0 0.0
2017-Dec-10 09:00N 29°42' W 095°03'0 0.0
2017-Dec-10 07:25N 29°42' W 095°03'0 0.0
2017-Dec-10 07:00N 29°42' W 095°03'0 0.0
2017-Dec-10 06:31N 29°42' W 095°03'0 0.0
2017-Dec-10 06:00N 29°42' W 095°03'0 0.0
2017-Dec-10 05:31N 29°42' W 095°03'0 0.0
2017-Dec-10 05:01N 29°42' W 095°03'0 0.0
2017-Dec-10 04:26N 29°42' W 095°03'0 0.0
2017-Dec-10 03:53N 29°42' W 095°03'0 0.0
2017-Dec-10 03:18N 29°42' W 095°03'0 0.0
2017-Dec-09 21:29N 29°42' W 095°03'0 0.0
2017-Dec-09 20:57N 29°42' W 095°03'0 0.0
2017-Dec-09 20:30N 29°42' W 095°03'0 0.0
2017-Dec-09 19:57N 29°42' W 095°03'0 0.0
2017-Dec-09 19:20N 29°42' W 095°03'0 0.0
2017-Dec-09 19:01N 29°42' W 095°03'0 0.0
2017-Dec-09 18:31N 29°42' W 095°03'0 0.0
2017-Dec-09 17:58N 29°42' W 095°03'0 0.0
2017-Dec-09 17:29N 29°42' W 095°03'0 0.0
2017-Dec-09 17:00N 29°42' W 095°03'0 0.0
2017-Dec-09 16:31N 29°42' W 095°03'0 0.0
2017-Dec-09 15:59N 29°42' W 095°03'0 0.0
2017-Dec-09 15:30N 29°42' W 095°03'0 0.0
2017-Dec-09 15:00N 29°42' W 095°03'0 0.0
2017-Dec-09 14:31N 29°42' W 095°03'0 0.0
2017-Dec-09 14:00N 29°42' W 095°03'0 0.0
2017-Dec-09 13:31N 29°42' W 095°03'0 0.0
2017-Dec-09 13:00N 29°42' W 095°03'0 0.0
2017-Dec-09 12:30N 29°42' W 095°03'0 0.0
2017-Dec-09 12:00N 29°42' W 095°03'0 0.0
2017-Dec-09 11:30N 29°42' W 095°03'0 0.0
2017-Dec-09 11:00N 29°42' W 095°03'0 0.0
2017-Dec-09 10:30N 29°42' W 095°03'0 0.0
2017-Dec-09 10:01N 29°42' W 095°03'0 0.0
2017-Dec-09 09:30N 29°42' W 095°03'0 0.0
2017-Dec-09 09:00N 29°42' W 095°03'0 0.0
2017-Dec-09 08:30N 29°42' W 095°03'0 0.0
2017-Dec-09 08:00N 29°42' W 095°03'0 0.0
2017-Dec-09 07:30N 29°42' W 095°03'0 0.0
2017-Dec-09 07:00N 29°42' W 095°03'0 0.0
2017-Dec-09 06:30N 29°42' W 095°03'0 0.0
2017-Dec-09 06:00N 29°42' W 095°03'0 0.0
2017-Dec-09 05:30N 29°42' W 095°03'0 0.0
2017-Dec-09 05:00N 29°42' W 095°03'0 0.0
2017-Dec-09 04:30N 29°42' W 095°03'0 0.0
2017-Dec-09 04:00N 29°42' W 095°03'0 0.0
2017-Dec-09 03:30N 29°42' W 095°03'0 0.0
2017-Dec-09 03:00N 29°42' W 095°03'0 0.0
2017-Dec-09 02:30N 29°42' W 095°03'0 0.0
2017-Dec-09 01:57N 29°42' W 095°03'0 0.0
2017-Dec-08 23:07N 29°42' W 095°03'0 0.0
2017-Dec-08 23:01N 29°42' W 095°03'0 0.0
2017-Dec-08 22:30N 29°42' W 095°03'0 0.0
2017-Dec-08 18:21N 29°42' W 095°03'0 0.0
2017-Dec-08 17:08N 29°42' W 095°03'0 0.0
2017-Dec-08 16:37N 29°42' W 095°03'0 0.0
2017-Dec-08 15:26N 29°42' W 095°03'0 0.0
2017-Dec-08 13:58N 29°42' W 095°03'0 0.0
2017-Dec-08 13:30N 29°42' W 095°03'0 0.0
2017-Dec-08 12:57N 29°42' W 095°03'0 0.0
2017-Dec-08 12:29N 29°42' W 095°03'0 0.0
2017-Dec-08 12:00N 29°42' W 095°03'0 0.0
2017-Dec-08 11:30N 29°42' W 095°03'0 0.0
2017-Dec-08 11:00N 29°42' W 095°03'0 0.0
2017-Dec-08 10:31N 29°42' W 095°03'0 0.0
2017-Dec-08 10:01N 29°42' W 095°03'0 0.0
2017-Dec-08 09:30N 29°42' W 095°03'0 0.0
2017-Dec-08 09:00N 29°42' W 095°03'0 0.0
2017-Dec-08 08:30N 29°42' W 095°03'0 0.0
2017-Dec-08 08:00N 29°42' W 095°03'0 0.0
2017-Dec-08 07:30N 29°42' W 095°03'0 0.0
2017-Dec-08 07:00N 29°42' W 095°03'0 0.0
2017-Dec-08 06:30N 29°42' W 095°03'0 0.0
2017-Dec-08 06:00N 29°42' W 095°03'0 0.0
2017-Dec-08 05:30N 29°42' W 095°03'0 0.0
2017-Dec-08 05:00N 29°42' W 095°03'0 0.0
2017-Dec-08 04:30N 29°42' W 095°03'0 0.0
2017-Dec-08 04:00N 29°42' W 095°03'0 0.0
2017-Dec-08 02:06N 29°42' W 095°03'0 0.0
2017-Dec-08 01:44N 29°42' W 095°03'0 0.0
2017-Dec-08 01:29N 29°42' W 095°03'0 0.0
2017-Dec-08 01:00N 29°42' W 095°03'0 0.0
2017-Dec-08 00:30N 29°42' W 095°03'0 0.0
2017-Dec-08 00:00N 29°42' W 095°03'0 0.0
2017-Dec-07 23:30N 29°42' W 095°03'0 0.0
2017-Dec-07 23:00N 29°42' W 095°03'0 0.0
2017-Dec-07 22:30N 29°42' W 095°03'0 0.0
2017-Dec-07 22:00N 29°42' W 095°03'0 0.0
2017-Dec-07 21:30N 29°42' W 095°03'0 0.1
2017-Dec-07 21:00N 29°42' W 095°03'0 0.0
2017-Dec-07 20:30N 29°42' W 095°03'0 0.6
2017-Dec-07 20:00N 29°42' W 095°02'1 2.7
2017-Dec-07 19:28N 29°44' W 095°02'4 5.9
2017-Dec-07 18:51N 29°44' W 095°06'2 7.0
2017-Dec-07 18:30N 29°44' W 095°09'3 0.5
2017-Dec-07 13:14N 29°44' W 095°12'0 0.0
2017-Dec-07 13:00N 29°44' W 095°12'0 0.0
2017-Dec-07 12:30N 29°44' W 095°12'0 0.0
2017-Dec-07 11:59N 29°44' W 095°12'0 0.0
2017-Dec-07 11:29N 29°44' W 095°12'0 0.0
2017-Dec-07 11:00N 29°44' W 095°12'0 0.0
2017-Dec-07 10:30N 29°44' W 095°12'0 0.0
2017-Dec-07 10:00N 29°44' W 095°12'0 0.0
2017-Dec-07 09:30N 29°44' W 095°12'0 0.0
2017-Dec-07 09:00N 29°44' W 095°12'0 0.0
2017-Dec-07 08:30N 29°44' W 095°12'0 0.0
2017-Dec-07 08:00N 29°44' W 095°12'0 0.0
2017-Dec-07 07:30N 29°44' W 095°12'0 0.0
2017-Dec-07 06:58N 29°44' W 095°12'0 0.0
2017-Dec-07 06:29N 29°44' W 095°12'0 0.0
2017-Dec-07 05:59N 29°44' W 095°12'0 0.0
2017-Dec-07 05:30N 29°44' W 095°12'0 0.0
2017-Dec-07 04:59N 29°44' W 095°12'0 0.0
2017-Dec-07 04:30N 29°44' W 095°12'0 0.0
2017-Dec-07 03:59N 29°44' W 095°12'0 0.0
2017-Dec-07 03:30N 29°44' W 095°12'0 0.0
2017-Dec-07 02:57N 29°44' W 095°12'0 0.0
2017-Dec-07 02:28N 29°44' W 095°12'0 0.0
2017-Dec-07 01:53N 29°44' W 095°12'0 0.0
2017-Dec-07 01:23N 29°44' W 095°12'0 0.0
2017-Dec-07 00:57N 29°44' W 095°12'0 0.0
2017-Dec-07 00:24N 29°44' W 095°12'0 0.0
2017-Dec-06 23:54N 29°44' W 095°12'0 0.0
2017-Dec-06 23:29N 29°44' W 095°12'0 0.0
2017-Dec-06 22:56N 29°44' W 095°12'0 0.0
2017-Dec-06 22:28N 29°44' W 095°12'  
2017-Dec-04 08:46N 29°52' W 092°23'1 4.5
2017-Dec-04 08:28N 29°51' W 092°22'2 4.1
2017-Dec-04 08:00N 29°50' W 092°20'2 4.3
2017-Dec-04 07:30N 29°49' W 092°18'2 4.6
2017-Dec-04 07:00N 29°48' W 092°15'3 5.2
2017-Dec-04 06:30N 29°47' W 092°12'1 1.3
2017-Dec-04 06:00N 29°47' W 092°12'0 1.0
2017-Dec-04 05:30N 29°47' W 092°11'0 0.0
2017-Dec-04 05:00N 29°47' W 092°11'0 0.4
2017-Dec-04 04:30N 29°47' W 092°11'1 1.2
2017-Dec-04 04:00N 29°47' W 092°10'2 4.1
2017-Dec-04 03:30N 29°47' W 092°08'3 5.3
2017-Dec-04 03:00N 29°48' W 092°05'3 5.3
2017-Dec-04 02:30N 29°49' W 092°02'  
Track history (hours):
 
Tides and Currents Weather Stations Pressure Air Temp Water Temp Dewpoint Dewpoint Depression Visibility Wind Speed Wind Dir Waves Ship Positions

American Freedom

Owner: LeBeouf Bros. Towing, L.L.C., Houma, LA. More information available from US FCC via Universal Licensing System and Coast Guard Vessel Documentation Center.

Last reported at 2017-Dec-12 21:37 UTC. Time now 2017-Dec-16 01:29 UTC.
Position N 29°30' W 094°52'.

Length 24 m.

Type: Tug. MMSI: 367005260.

Date/timePositionNaut miles runAvg speedWind from/ knotsBaromVisibWave heightAir tempDewpointWater temp
2017-Dec-12 21:37N 29°30' W 094°52'1 7.6
2017-Dec-12 21:30N 29°30' W 094°53'4 7.6
2017-Dec-12 21:01N 29°34' W 094°55'4 7.9
2017-Dec-12 20:31N 29°37' W 094°57'4 8.1
2017-Dec-12 20:01N 29°41' W 094°59'4 6.5
2017-Dec-12 19:28N 29°42' W 095°02'0 0.4
2017-Dec-12 18:38N 29°42' W 095°03'0 0.0
2017-Dec-12 18:29N 29°42' W 095°03'0 0.0
2017-Dec-12 17:56N 29°42' W 095°03'0 0.0
2017-Dec-12 17:26N 29°42' W 095°03'0 0.0
2017-Dec-12 16:55N 29°42' W 095°03'0 0.0
2017-Dec-12 16:30N 29°42' W 095°03'0 0.0
2017-Dec-12 15:57N 29°42' W 095°03'0 0.0
2017-Dec-12 15:26N 29°42' W 095°03'0 0.0
2017-Dec-12 14:54N 29°42' W 095°03'0 0.0
2017-Dec-12 14:30N 29°42' W 095°03'0 0.0
2017-Dec-12 13:58N 29°42' W 095°03'0 0.0
2017-Dec-12 13:16N 29°42' W 095°03'0 0.0
2017-Dec-12 12:52N 29°42' W 095°03'0 0.0
2017-Dec-12 12:11N 29°42' W 095°03'0 0.0
2017-Dec-12 11:57N 29°42' W 095°03'0 0.0
2017-Dec-12 11:29N 29°42' W 095°03'0 0.0
2017-Dec-12 11:00N 29°42' W 095°03'0 0.0
2017-Dec-12 10:28N 29°42' W 095°03'0 0.0
2017-Dec-12 09:57N 29°42' W 095°03'0 0.0
2017-Dec-12 09:24N 29°42' W 095°03'0 0.0
2017-Dec-12 08:55N 29°42' W 095°03'0 0.0
2017-Dec-12 08:29N 29°42' W 095°03'1 2.7
2017-Dec-12 08:00N 29°42' W 095°01'3 5.7
2017-Dec-12 07:25N 29°45' W 095°04'2 1.4
2017-Dec-12 06:06N 29°45' W 095°06'2 0.4
2017-Dec-11 23:44N 29°44' W 095°03'2 7.1
2017-Dec-11 23:29N 29°43' W 095°01'2 3.2
2017-Dec-11 23:00N 29°42' W 095°03'0 0.0
2017-Dec-11 22:28N 29°42' W 095°03'0 0.0
2017-Dec-11 21:48N 29°42' W 095°03'0 0.0
2017-Dec-11 21:24N 29°42' W 095°03'0 0.0
2017-Dec-11 20:48N 29°42' W 095°03'0 0.0
2017-Dec-11 20:30N 29°42' W 095°03'0 0.0
2017-Dec-11 19:59N 29°42' W 095°03'0 0.0
2017-Dec-11 19:15N 29°42' W 095°03'0 0.0
2017-Dec-11 19:00N 29°42' W 095°03'0 0.1
2017-Dec-11 18:04N 29°42' W 095°03'0 0.0
2017-Dec-11 17:55N 29°42' W 095°03'0 0.0
2017-Dec-11 17:24N 29°42' W 095°03'0 0.0
2017-Dec-11 16:54N 29°42' W 095°03'0 0.0
2017-Dec-11 16:30N 29°42' W 095°03'0 0.0
2017-Dec-11 15:09N 29°42' W 095°03'0 0.1
2017-Dec-11 14:47N 29°42' W 095°03'0 0.0
2017-Dec-11 14:30N 29°42' W 095°03'0 0.0
2017-Dec-11 13:59N 29°42' W 095°03'0 0.0
2017-Dec-11 13:10N 29°42' W 095°03'0 0.0
2017-Dec-11 12:55N 29°42' W 095°03'0 0.0
2017-Dec-11 11:33N 29°42' W 095°03'0 0.0
2017-Dec-11 11:26N 29°42' W 095°03'0 0.0
2017-Dec-11 10:30N 29°42' W 095°03'0 0.0
2017-Dec-11 09:58N 29°42' W 095°03'0 0.0
2017-Dec-11 09:29N 29°42' W 095°03'0 0.0
2017-Dec-11 09:01N 29°42' W 095°03'0 0.0
2017-Dec-11 08:30N 29°42' W 095°03'0 0.0
2017-Dec-11 07:53N 29°42' W 095°03'0 0.0
2017-Dec-11 07:02N 29°42' W 095°03'0 0.0
2017-Dec-11 06:58N 29°42' W 095°03'0 0.0
2017-Dec-11 06:30N 29°42' W 095°03'0 0.0
2017-Dec-11 05:59N 29°42' W 095°03'0 0.0
2017-Dec-11 05:23N 29°42' W 095°03'0 0.0
2017-Dec-11 04:54N 29°42' W 095°03'0 0.0
2017-Dec-11 04:30N 29°42' W 095°03'0 0.0
2017-Dec-11 03:46N 29°42' W 095°03'0 0.0
2017-Dec-11 03:24N 29°42' W 095°03'0 0.0
2017-Dec-11 02:54N 29°42' W 095°03'0 0.0
2017-Dec-11 02:28N 29°42' W 095°03'0 0.0
2017-Dec-11 01:59N 29°42' W 095°03'0 0.0
2017-Dec-11 01:23N 29°42' W 095°03'0 0.0
2017-Dec-11 00:58N 29°42' W 095°03'0 0.0
2017-Dec-11 00:22N 29°42' W 095°03'0 0.0
2017-Dec-10 23:48N 29°42' W 095°03'0 0.0
2017-Dec-10 23:25N 29°42' W 095°03'0 0.0
2017-Dec-10 23:00N 29°42' W 095°03'0 0.0
2017-Dec-10 22:27N 29°42' W 095°03'0 0.0
2017-Dec-10 21:45N 29°42' W 095°03'0 0.0
2017-Dec-10 21:24N 29°42' W 095°03'0 0.0
2017-Dec-10 20:59N 29°42' W 095°03'0 0.0
2017-Dec-10 20:27N 29°42' W 095°03'0 0.0
2017-Dec-10 19:08N 29°42' W 095°03'0 0.0
2017-Dec-10 19:01N 29°42' W 095°03'0 0.0
2017-Dec-10 18:25N 29°42' W 095°03'0 0.0
2017-Dec-10 17:35N 29°42' W 095°03'0 0.0
2017-Dec-10 17:26N 29°42' W 095°03'0 0.0
2017-Dec-10 17:01N 29°42' W 095°03'0 0.0
2017-Dec-10 15:23N 29°42' W 095°03'0 0.0
2017-Dec-10 14:58N 29°42' W 095°03'0 0.0
2017-Dec-10 14:15N 29°42' W 095°03'0 0.0
2017-Dec-10 13:59N 29°42' W 095°03'0 0.0
2017-Dec-10 13:27N 29°42' W 095°03'0 0.0
2017-Dec-10 12:55N 29°42' W 095°03'0 0.0
2017-Dec-10 12:31N 29°42' W 095°03'0 0.0
2017-Dec-10 11:43N 29°42' W 095°03'0 0.0
2017-Dec-10 11:21N 29°42' W 095°03'0 0.0
2017-Dec-10 10:43N 29°42' W 095°03'0 0.0
2017-Dec-10 10:29N 29°42' W 095°03'0 0.0
2017-Dec-10 09:57N 29°42' W 095°03'0 0.0
2017-Dec-10 09:00N 29°42' W 095°03'0 0.0
2017-Dec-10 07:25N 29°42' W 095°03'0 0.0
2017-Dec-10 07:00N 29°42' W 095°03'0 0.0
2017-Dec-10 06:31N 29°42' W 095°03'0 0.0
2017-Dec-10 06:00N 29°42' W 095°03'0 0.0
2017-Dec-10 05:31N 29°42' W 095°03'0 0.0
2017-Dec-10 05:01N 29°42' W 095°03'0 0.0
2017-Dec-10 04:26N 29°42' W 095°03'0 0.0
2017-Dec-10 03:53N 29°42' W 095°03'0 0.0
2017-Dec-10 03:18N 29°42' W 095°03'0 0.0
2017-Dec-09 21:29N 29°42' W 095°03'0 0.0
2017-Dec-09 20:57N 29°42' W 095°03'0 0.0
2017-Dec-09 20:30N 29°42' W 095°03'0 0.0
2017-Dec-09 19:57N 29°42' W 095°03'0 0.0
2017-Dec-09 19:20N 29°42' W 095°03'0 0.0
2017-Dec-09 19:01N 29°42' W 095°03'0 0.0
2017-Dec-09 18:31N 29°42' W 095°03'0 0.0
2017-Dec-09 17:58N 29°42' W 095°03'0 0.0
2017-Dec-09 17:29N 29°42' W 095°03'0 0.0
2017-Dec-09 17:00N 29°42' W 095°03'0 0.0
2017-Dec-09 16:31N 29°42' W 095°03'0 0.0
2017-Dec-09 15:59N 29°42' W 095°03'0 0.0
2017-Dec-09 15:30N 29°42' W 095°03'0 0.0
2017-Dec-09 15:00N 29°42' W 095°03'0 0.0
2017-Dec-09 14:31N 29°42' W 095°03'0 0.0
2017-Dec-09 14:00N 29°42' W 095°03'0 0.0
2017-Dec-09 13:31N 29°42' W 095°03'0 0.0
2017-Dec-09 13:00N 29°42' W 095°03'0 0.0
2017-Dec-09 12:30N 29°42' W 095°03'0 0.0
2017-Dec-09 12:00N 29°42' W 095°03'0 0.0
2017-Dec-09 11:30N 29°42' W 095°03'0 0.0
2017-Dec-09 11:00N 29°42' W 095°03'0 0.0
2017-Dec-09 10:30N 29°42' W 095°03'0 0.0
2017-Dec-09 10:01N 29°42' W 095°03'0 0.0
2017-Dec-09 09:30N 29°42' W 095°03'0 0.0
2017-Dec-09 09:00N 29°42' W 095°03'0 0.0
2017-Dec-09 08:30N 29°42' W 095°03'0 0.0
2017-Dec-09 08:00N 29°42' W 095°03'0 0.0
2017-Dec-09 07:30N 29°42' W 095°03'0 0.0
2017-Dec-09 07:00N 29°42' W 095°03'0 0.0
2017-Dec-09 06:30N 29°42' W 095°03'0 0.0
2017-Dec-09 06:00N 29°42' W 095°03'0 0.0
2017-Dec-09 05:30N 29°42' W 095°03'0 0.0
2017-Dec-09 05:00N 29°42' W 095°03'0 0.0
2017-Dec-09 04:30N 29°42' W 095°03'0 0.0
2017-Dec-09 04:00N 29°42' W 095°03'0 0.0
2017-Dec-09 03:30N 29°42' W 095°03'0 0.0
2017-Dec-09 03:00N 29°42' W 095°03'0 0.0
2017-Dec-09 02:30N 29°42' W 095°03'0 0.0
2017-Dec-09 01:57N 29°42' W 095°03'0 0.0
2017-Dec-08 23:07N 29°42' W 095°03'0 0.0
2017-Dec-08 23:01N 29°42' W 095°03'0 0.0
2017-Dec-08 22:30N 29°42' W 095°03'0 0.0
2017-Dec-08 18:21N 29°42' W 095°03'0 0.0
2017-Dec-08 17:08N 29°42' W 095°03'0 0.0
2017-Dec-08 16:37N 29°42' W 095°03'0 0.0
2017-Dec-08 15:26N 29°42' W 095°03'0 0.0
2017-Dec-08 13:58N 29°42' W 095°03'0 0.0
2017-Dec-08 13:30N 29°42' W 095°03'0 0.0
2017-Dec-08 12:57N 29°42' W 095°03'0 0.0
2017-Dec-08 12:29N 29°42' W 095°03'0 0.0
2017-Dec-08 12:00N 29°42' W 095°03'0 0.0
2017-Dec-08 11:30N 29°42' W 095°03'0 0.0
2017-Dec-08 11:00N 29°42' W 095°03'0 0.0
2017-Dec-08 10:31N 29°42' W 095°03'0 0.0
2017-Dec-08 10:01N 29°42' W 095°03'0 0.0
2017-Dec-08 09:30N 29°42' W 095°03'0 0.0
2017-Dec-08 09:00N 29°42' W 095°03'0 0.0
2017-Dec-08 08:30N 29°42' W 095°03'0 0.0
2017-Dec-08 08:00N 29°42' W 095°03'0 0.0
2017-Dec-08 07:30N 29°42' W 095°03'0 0.0
2017-Dec-08 07:00N 29°42' W 095°03'0 0.0
2017-Dec-08 06:30N 29°42' W 095°03'0 0.0
2017-Dec-08 06:00N 29°42' W 095°03'0 0.0
2017-Dec-08 05:30N 29°42' W 095°03'0 0.0
2017-Dec-08 05:00N 29°42' W 095°03'0 0.0
2017-Dec-08 04:30N 29°42' W 095°03'0 0.0
2017-Dec-08 04:00N 29°42' W 095°03'0 0.0
2017-Dec-08 02:06N 29°42' W 095°03'0 0.0
2017-Dec-08 01:44N 29°42' W 095°03'0 0.0
2017-Dec-08 01:29N 29°42' W 095°03'0 0.0
2017-Dec-08 01:00N 29°42' W 095°03'0 0.0
2017-Dec-08 00:30N 29°42' W 095°03'0 0.0
2017-Dec-08 00:00N 29°42' W 095°03'0 0.0
2017-Dec-07 23:30N 29°42' W 095°03'0 0.0
2017-Dec-07 23:00N 29°42' W 095°03'0 0.0
2017-Dec-07 22:30N 29°42' W 095°03'0 0.0
2017-Dec-07 22:00N 29°42' W 095°03'0 0.0
2017-Dec-07 21:30N 29°42' W 095°03'0 0.1
2017-Dec-07 21:00N 29°42' W 095°03'0 0.0
2017-Dec-07 20:30N 29°42' W 095°03'0 0.6
2017-Dec-07 20:00N 29°42' W 095°02'1 2.7
2017-Dec-07 19:28N 29°44' W 095°02'4 5.9
2017-Dec-07 18:51N 29°44' W 095°06'2 7.0
2017-Dec-07 18:30N 29°44' W 095°09'3 0.5
2017-Dec-07 13:14N 29°44' W 095°12'0 0.0
2017-Dec-07 13:00N 29°44' W 095°12'0 0.0
2017-Dec-07 12:30N 29°44' W 095°12'0 0.0
2017-Dec-07 11:59N 29°44' W 095°12'0 0.0
2017-Dec-07 11:29N 29°44' W 095°12'0 0.0
2017-Dec-07 11:00N 29°44' W 095°12'0 0.0
2017-Dec-07 10:30N 29°44' W 095°12'0 0.0
2017-Dec-07 10:00N 29°44' W 095°12'0 0.0
2017-Dec-07 09:30N 29°44' W 095°12'0 0.0
2017-Dec-07 09:00N 29°44' W 095°12'0 0.0
2017-Dec-07 08:30N 29°44' W 095°12'0 0.0
2017-Dec-07 08:00N 29°44' W 095°12'0 0.0
2017-Dec-07 07:30N 29°44' W 095°12'0 0.0
2017-Dec-07 06:58N 29°44' W 095°12'0 0.0
2017-Dec-07 06:29N 29°44' W 095°12'0 0.0
2017-Dec-07 05:59N 29°44' W 095°12'0 0.0
2017-Dec-07 05:30N 29°44' W 095°12'0 0.0
2017-Dec-07 04:59N 29°44' W 095°12'0 0.0
2017-Dec-07 04:30N 29°44' W 095°12'0 0.0
2017-Dec-07 03:59N 29°44' W 095°12'0 0.0
2017-Dec-07 03:30N 29°44' W 095°12'0 0.0
2017-Dec-07 02:57N 29°44' W 095°12'0 0.0
2017-Dec-07 02:28N 29°44' W 095°12'0 0.0
2017-Dec-07 01:53N 29°44' W 095°12'0 0.0
2017-Dec-07 01:23N 29°44' W 095°12'0 0.0
2017-Dec-07 00:57N 29°44' W 095°12'0 0.0
2017-Dec-07 00:24N 29°44' W 095°12'0 0.0
2017-Dec-06 23:54N 29°44' W 095°12'0 0.0
2017-Dec-06 23:29N 29°44' W 095°12'0 0.0
2017-Dec-06 22:56N 29°44' W 095°12'0 0.0
2017-Dec-06 22:28N 29°44' W 095°12'  
2017-Dec-04 08:46N 29°52' W 092°23'1 4.5
2017-Dec-04 08:28N 29°51' W 092°22'2 4.1
2017-Dec-04 08:00N 29°50' W 092°20'2 4.3
2017-Dec-04 07:30N 29°49' W 092°18'2 4.6
2017-Dec-04 07:00N 29°48' W 092°15'3 5.2
2017-Dec-04 06:30N 29°47' W 092°12'1 1.3
2017-Dec-04 06:00N 29°47' W 092°12'0 1.0
2017-Dec-04 05:30N 29°47' W 092°11'0 0.0
2017-Dec-04 05:00N 29°47' W 092°11'0 0.4
2017-Dec-04 04:30N 29°47' W 092°11'1 1.2
2017-Dec-04 04:00N 29°47' W 092°10'2 4.1
2017-Dec-04 03:30N 29°47' W 092°08'3 5.3
2017-Dec-04 03:00N 29°48' W 092°05'3 5.3
2017-Dec-04 02:30N 29°49' W 092°02'  

Dump ship's entire track history